sensor_id;sensor_type;location;lat;lon;timestamp;pressure;altitude;pressure_sealevel;temperature;humidity
68199;BME280;55021;51.554;17.044;2024-02-21T00:13:03;101202.09;;;7.18;100.00
68199;BME280;55021;51.554;17.044;2024-02-21T00:28:05;101236.44;;;7.60;98.44
68199;BME280;55021;51.554;17.044;2024-02-21T00:43:08;101208.22;;;6.87;100.00
68199;BME280;55021;51.554;17.044;2024-02-21T00:58:10;101231.63;;;6.97;100.00
68199;BME280;55021;51.554;17.044;2024-02-21T01:13:13;101173.06;;;7.21;100.00
68199;BME280;55021;51.554;17.044;2024-02-21T01:28:15;101208.31;;;6.85;100.00
68199;BME280;55021;51.554;17.044;2024-02-21T01:43:19;101175.59;;;6.90;100.00
68199;BME280;55021;51.554;17.044;2024-02-21T01:58:22;101157.13;;;7.41;100.00
68199;BME280;55021;51.554;17.044;2024-02-21T02:13:25;101134.06;;;7.37;100.00
68199;BME280;55021;51.554;17.044;2024-02-21T02:28:27;101135.19;;;6.79;100.00
68199;BME280;55021;51.554;17.044;2024-02-21T02:43:30;101095.81;;;6.21;100.00
68199;BME280;55021;51.554;17.044;2024-02-21T02:58:32;101124.38;;;7.23;100.00
68199;BME280;55021;51.554;17.044;2024-02-21T03:13:35;101097.19;;;7.15;100.00
68199;BME280;55021;51.554;17.044;2024-02-21T03:28:37;101082.03;;;7.57;100.00
68199;BME280;55021;51.554;17.044;2024-02-21T03:43:40;101054.44;;;6.99;100.00
68199;BME280;55021;51.554;17.044;2024-02-21T03:58:42;101013.72;;;7.56;99.36
68199;BME280;55021;51.554;17.044;2024-02-21T04:13:45;101048.16;;;7.10;100.00
68199;BME280;55021;51.554;17.044;2024-02-21T04:28:48;101006.28;;;7.06;100.00
68199;BME280;55021;51.554;17.044;2024-02-21T04:43:50;100982.59;;;7.09;100.00
68199;BME280;55021;51.554;17.044;2024-02-21T04:58:53;100974.97;;;7.14;98.31
68199;BME280;55021;51.554;17.044;2024-02-21T05:13:55;100982.00;;;7.90;95.49
68199;BME280;55021;51.554;17.044;2024-02-21T05:28:58;100974.16;;;7.66;97.34
68199;BME280;55021;51.554;17.044;2024-02-21T05:44:00;100933.94;;;7.84;93.90
68199;BME280;55021;51.554;17.044;2024-02-21T05:59:02;100970.13;;;8.02;96.05
68199;BME280;55021;51.554;17.044;2024-02-21T06:14:05;100933.00;;;8.15;94.84
68199;BME280;55021;51.554;17.044;2024-02-21T06:29:07;100896.78;;;7.97;94.02
68199;BME280;55021;51.554;17.044;2024-02-21T06:44:10;100956.34;;;8.66;93.92
68199;BME280;55021;51.554;17.044;2024-02-21T06:59:33;100913.47;;;8.42;94.01
68199;BME280;55021;51.554;17.044;2024-02-21T07:14:36;100981.72;;;8.44;97.17
68199;BME280;55021;51.554;17.044;2024-02-21T07:29:41;100965.47;;;8.74;96.15
68199;BME280;55021;51.554;17.044;2024-02-21T07:44:43;100855.72;;;7.63;99.75
68199;BME280;55021;51.554;17.044;2024-02-21T07:59:51;100942.75;;;8.46;100.00
68199;BME280;55021;51.554;17.044;2024-02-21T08:14:54;100844.00;;;7.74;100.00
68199;BME280;55021;51.554;17.044;2024-02-21T08:29:56;100893.22;;;7.97;100.00
68199;BME280;55021;51.554;17.044;2024-02-21T08:44:59;100881.22;;;8.10;100.00
68199;BME280;55021;51.554;17.044;2024-02-21T09:00:07;100850.09;;;8.06;99.74
68199;BME280;55021;51.554;17.044;2024-02-21T09:15:31;100868.53;;;8.41;99.89
68199;BME280;55021;51.554;17.044;2024-02-21T09:46:03;100801.25;;;8.28;99.16
68199;BME280;55021;51.554;17.044;2024-02-21T10:01:40;100797.72;;;9.24;96.23
68199;BME280;55021;51.554;17.044;2024-02-21T10:16:42;100814.09;;;8.55;98.61
68199;BME280;55021;51.554;17.044;2024-02-21T10:31:45;100819.13;;;7.50;100.00
68199;BME280;55021;51.554;17.044;2024-02-21T10:46:55;100885.03;;;8.57;100.00
68199;BME280;55021;51.554;17.044;2024-02-21T11:02:04;100830.84;;;9.54;98.31
68199;BME280;55021;51.554;17.044;2024-02-21T11:17:36;100832.44;;;8.90;99.94
68199;BME280;55021;51.554;17.044;2024-02-21T11:32:39;100793.44;;;8.44;100.00
68199;BME280;55021;51.554;17.044;2024-02-21T12:03:21;100709.53;;;8.65;99.03
68199;BME280;55021;51.554;17.044;2024-02-21T12:18:40;100735.91;;;9.19;99.01
68199;BME280;55021;51.554;17.044;2024-02-21T12:33:43;100637.09;;;9.25;93.87
68199;BME280;55021;51.554;17.044;2024-02-21T12:48:52;100632.13;;;8.83;93.31
68199;BME280;55021;51.554;17.044;2024-02-21T13:03:55;100675.63;;;8.90;93.57
68199;BME280;55021;51.554;17.044;2024-02-21T13:18:57;100698.00;;;9.65;90.14
68199;BME280;55021;51.554;17.044;2024-02-21T13:34:00;100660.16;;;10.01;87.94
68199;BME280;55021;51.554;17.044;2024-02-21T13:49:04;100629.50;;;10.36;86.74
68199;BME280;55021;51.554;17.044;2024-02-21T14:04:07;100610.28;;;10.29;85.45
68199;BME280;55021;51.554;17.044;2024-02-21T14:19:09;100537.25;;;9.31;87.56
68199;BME280;55021;51.554;17.044;2024-02-21T14:34:16;100582.97;;;10.22;85.03
68199;BME280;55021;51.554;17.044;2024-02-21T14:49:25;100566.41;;;9.37;90.62
68199;BME280;55021;51.554;17.044;2024-02-21T15:04:30;100571.47;;;9.85;88.23
68199;BME280;55021;51.554;17.044;2024-02-21T15:19:33;100459.22;;;9.80;85.45
68199;BME280;55021;51.554;17.044;2024-02-21T15:34:37;100490.34;;;10.01;84.96
68199;BME280;55021;51.554;17.044;2024-02-21T15:49:39;100511.69;;;10.22;84.57
68199;BME280;55021;51.554;17.044;2024-02-21T16:04:42;100482.22;;;9.76;86.04
68199;BME280;55021;51.554;17.044;2024-02-21T16:19:45;100545.09;;;10.30;84.76
68199;BME280;55021;51.554;17.044;2024-02-21T16:34:48;100517.13;;;10.04;85.98
68199;BME280;55021;51.554;17.044;2024-02-21T16:49:50;100510.53;;;10.07;84.14
68199;BME280;55021;51.554;17.044;2024-02-21T17:04:56;100490.53;;;9.82;84.75
68199;BME280;55021;51.554;17.044;2024-02-21T17:19:59;100385.50;;;9.60;81.99
68199;BME280;55021;51.554;17.044;2024-02-21T17:35:02;100478.09;;;10.15;82.45
68199;BME280;55021;51.554;17.044;2024-02-21T17:50:05;100421.69;;;9.24;84.03
68199;BME280;55021;51.554;17.044;2024-02-21T18:05:09;100390.94;;;8.62;86.54
68199;BME280;55021;51.554;17.044;2024-02-21T18:20:27;100377.41;;;8.17;89.26
68199;BME280;55021;51.554;17.044;2024-02-21T18:35:30;100405.66;;;8.23;87.59
68199;BME280;55021;51.554;17.044;2024-02-21T18:50:32;100413.72;;;7.86;90.98
68199;BME280;55021;51.554;17.044;2024-02-21T19:05:54;100348.38;;;7.36;91.87
68199;BME280;55021;51.554;17.044;2024-02-21T19:20:57;100393.78;;;7.31;92.45
68199;BME280;55021;51.554;17.044;2024-02-21T19:36:07;100265.56;;;6.52;92.77
68199;BME280;55021;51.554;17.044;2024-02-21T19:51:13;100337.75;;;6.77;94.15
68199;BME280;55021;51.554;17.044;2024-02-21T20:06:16;100240.63;;;6.31;94.87
68199;BME280;55021;51.554;17.044;2024-02-21T20:37:09;100207.31;;;6.60;93.40
68199;BME280;55021;51.554;17.044;2024-02-21T20:52:13;100121.34;;;6.01;94.71
68199;BME280;55021;51.554;17.044;2024-02-21T21:23:37;100077.84;;;6.15;93.66
68199;BME280;55021;51.554;17.044;2024-02-21T21:39:16;100131.94;;;6.51;95.06
68199;BME280;55021;51.554;17.044;2024-02-21T21:54:46;100108.91;;;6.66;94.23
68199;BME280;55021;51.554;17.044;2024-02-21T22:41:39;100039.59;;;6.95;93.95
68199;BME280;55021;51.554;17.044;2024-02-21T23:12:23;100013.94;;;7.46;91.87
68199;BME280;55021;51.554;17.044;2024-02-21T23:27:29;99990.84;;;6.89;93.83
68199;BME280;55021;51.554;17.044;2024-02-21T23:42:33;99976.00;;;7.82;90.21
68199;BME280;55021;51.554;17.044;2024-02-21T23:57:37;99957.41;;;7.79;90.32
